createdAt,value
2019-02-12T00:01:02.836Z,17.25
2019-02-12T00:03:32.582Z,16.07
2019-02-12T00:06:02.312Z,17.87
2019-02-12T00:08:31.981Z,15.35
2019-02-12T00:11:01.772Z,14.43
2019-02-12T00:13:31.409Z,14.85
2019-02-12T00:16:01.094Z,15.00
2019-02-12T00:18:30.795Z,15.25
2019-02-12T00:21:08.776Z,14.87
2019-02-12T00:23:31.887Z,14.73
2019-02-12T00:26:01.585Z,14.60
2019-02-12T00:28:31.311Z,13.95
2019-02-12T00:31:01.036Z,13.60
2019-02-12T00:33:30.813Z,14.05
2019-02-12T00:36:00.460Z,13.22
2019-02-12T00:38:30.134Z,13.80
2019-02-12T00:40:59.886Z,13.75
2019-02-12T00:43:29.554Z,12.82
2019-02-12T00:45:59.286Z,12.68
2019-02-12T00:48:29.072Z,12.30
2019-02-12T00:50:58.722Z,12.70
2019-02-12T00:53:28.398Z,12.45
2019-02-12T00:55:58.159Z,12.75
2019-02-12T00:58:27.812Z,11.95
2019-02-12T01:00:57.546Z,12.05
2019-02-12T01:03:27.229Z,11.60
2019-02-12T01:05:56.951Z,11.12
2019-02-12T01:08:26.622Z,11.60
2019-02-12T01:10:56.489Z,10.93
2019-02-12T01:13:26.118Z,11.43
2019-02-12T01:15:55.796Z,11.03
2019-02-12T01:18:25.430Z,10.68
2019-02-12T01:20:55.111Z,10.38
2019-02-12T01:23:24.834Z,10.32
2019-02-12T01:25:54.429Z,11.00
2019-02-12T01:28:24.232Z,9.85
2019-02-12T01:30:53.780Z,10.10
2019-02-12T01:33:23.560Z,10.23
2019-02-12T01:35:53.207Z,9.73
2019-02-12T01:38:22.880Z,10.13
2019-02-12T01:40:52.518Z,10.05
2019-02-12T01:43:22.325Z,9.58
2019-02-12T01:45:52.051Z,9.45
2019-02-12T01:48:21.729Z,9.43
2019-02-12T01:50:51.577Z,9.45
2019-02-12T01:53:21.263Z,9.63
2019-02-12T01:55:50.964Z,9.33
2019-02-12T01:58:20.611Z,9.05
2019-02-12T02:00:50.277Z,8.93
2019-02-12T02:03:19.959Z,9.25
2019-02-12T02:05:49.814Z,8.20
2019-02-12T02:08:19.434Z,8.38
2019-02-12T02:10:49.132Z,8.83
2019-02-12T02:13:18.853Z,8.38
2019-02-12T02:15:48.554Z,8.30
2019-02-12T02:18:18.225Z,7.87
2019-02-12T02:20:47.972Z,8.00
2019-02-12T02:23:17.679Z,8.35
2019-02-12T02:25:47.314Z,7.50
2019-02-12T02:28:16.999Z,7.97
2019-02-12T02:30:46.668Z,7.75
2019-02-12T02:33:16.317Z,7.60
2019-02-12T02:35:45.957Z,7.55
2019-02-12T02:38:15.736Z,7.58
2019-02-12T02:40:45.541Z,6.83
2019-02-12T02:43:15.270Z,7.17
2019-02-12T02:45:44.971Z,7.47
2019-02-12T02:48:14.821Z,7.33
2019-02-12T02:50:44.509Z,6.97
2019-02-12T02:53:14.138Z,7.00
2019-02-12T02:55:43.824Z,6.90
2019-02-12T02:58:13.549Z,6.37
2019-02-12T03:00:43.238Z,6.65
2019-02-12T03:03:13.000Z,6.28
2019-02-12T03:05:42.564Z,6.58
2019-02-12T03:08:12.247Z,6.50
2019-02-12T03:10:41.883Z,6.97
2019-02-12T03:13:11.583Z,6.53
2019-02-12T03:15:41.330Z,5.87
2019-02-12T03:18:11.014Z,5.92
2019-02-12T03:20:40.686Z,6.12
2019-02-12T03:23:10.327Z,5.60
2019-02-12T03:25:39.976Z,6.08
2019-02-12T03:28:09.648Z,6.10
2019-02-12T03:30:39.365Z,6.20
2019-02-12T03:33:09.102Z,5.87
2019-02-12T03:35:38.793Z,5.53
2019-02-12T03:38:08.470Z,5.45
2019-02-12T03:40:38.210Z,5.70
2019-02-12T03:43:07.847Z,5.42
2019-02-12T03:45:37.530Z,5.72
2019-02-12T03:48:07.164Z,5.62
2019-02-12T03:50:36.991Z,5.35
2019-02-12T03:53:06.656Z,5.60
2019-02-12T03:55:36.461Z,4.97
2019-02-12T03:58:06.082Z,5.50
2019-02-12T04:00:35.714Z,5.05
2019-02-12T04:03:06.813Z,5.12
2019-02-12T04:05:37.428Z,5.30
2019-02-12T04:08:07.433Z,5.42
2019-02-12T04:10:37.212Z,5.42
2019-02-12T04:13:06.854Z,5.00
2019-02-12T04:15:36.593Z,4.45
2019-02-12T04:18:06.362Z,4.70
2019-02-12T04:20:36.046Z,4.70
2019-02-12T04:23:05.675Z,5.00
2019-02-12T04:25:35.468Z,5.00
2019-02-12T04:28:05.278Z,4.75
2019-02-12T04:30:34.974Z,4.58
2019-02-12T04:33:04.698Z,4.92
2019-02-12T04:35:34.334Z,4.22
2019-02-12T04:38:04.020Z,4.60
2019-02-12T04:40:33.743Z,4.22
2019-02-12T04:43:03.475Z,4.53
2019-02-12T04:45:33.080Z,4.53
2019-02-12T04:48:02.859Z,4.33
2019-02-12T04:50:32.498Z,4.55
2019-02-12T04:53:02.194Z,4.08
2019-02-12T04:55:31.877Z,4.33
2019-02-12T04:58:01.537Z,4.47
2019-02-12T05:00:31.346Z,4.10
2019-02-12T05:03:01.029Z,4.53
2019-02-12T05:05:30.623Z,3.72
2019-02-12T05:08:00.482Z,3.83
2019-02-12T05:10:32.473Z,4.05
2019-02-12T05:13:02.121Z,3.90
2019-02-12T05:15:31.855Z,3.95
2019-02-12T05:18:01.643Z,4.45
2019-02-12T05:20:31.604Z,4.08
2019-02-12T05:23:01.329Z,3.75
2019-02-12T05:25:31.215Z,3.52
2019-02-12T05:28:01.055Z,3.58
2019-02-12T05:30:30.872Z,3.20
2019-02-12T05:33:00.633Z,3.12
2019-02-12T05:35:30.399Z,3.15
2019-02-12T05:38:00.159Z,3.65
2019-02-12T05:40:29.897Z,2.20
2019-02-12T05:42:59.604Z,1.62
2019-02-12T05:45:29.292Z,2.12
2019-02-12T05:47:59.021Z,2.67
2019-02-12T05:50:28.702Z,2.62
2019-02-12T05:52:58.338Z,3.22
2019-02-12T05:55:28.050Z,3.00
2019-02-12T05:57:57.887Z,2.77
2019-02-12T06:00:29.791Z,2.62
2019-02-12T06:02:59.514Z,2.60
2019-02-12T06:05:29.894Z,2.40
2019-02-12T06:07:59.730Z,2.58
2019-02-12T06:10:29.557Z,2.52
2019-02-12T06:12:59.625Z,2.80
2019-02-12T06:15:29.422Z,2.72
2019-02-12T06:17:59.227Z,2.45
2019-02-12T06:20:28.917Z,2.77
2019-02-12T06:23:03.885Z,2.80
2019-02-12T06:25:29.986Z,2.50
2019-02-12T06:27:59.845Z,2.35
2019-02-12T06:30:30.193Z,2.62
2019-02-12T06:33:07.337Z,2.40
2019-02-12T06:35:31.288Z,2.25
2019-02-12T06:38:00.944Z,2.25
2019-02-12T06:40:30.619Z,2.30
2019-02-12T06:43:00.127Z,2.42
2019-02-12T06:45:29.828Z,2.33
2019-02-12T06:47:59.539Z,2.50
2019-02-12T06:50:29.400Z,2.58
2019-02-12T06:52:59.044Z,2.37
2019-02-12T06:55:28.760Z,2.45
2019-02-12T06:57:58.593Z,2.47
2019-02-12T07:00:28.200Z,2.20
2019-02-12T07:03:11.535Z,1.92
2019-02-12T07:05:46.913Z,1.92
2019-02-12T07:08:50.466Z,2.70
2019-02-12T07:11:51.049Z,2.20
2019-02-12T07:14:55.715Z,2.27
2019-02-12T07:17:56.878Z,2.02
2019-02-12T07:20:59.180Z,2.42
2019-02-12T07:24:04.410Z,2.58
2019-02-12T07:27:39.230Z,1.90
2019-02-12T07:30:43.092Z,2.10
2019-02-12T07:33:47.891Z,2.02
2019-02-12T07:37:03.372Z,2.12
2019-02-12T07:40:04.301Z,1.90
2019-02-12T07:43:02.114Z,2.08
2019-02-12T07:46:21.759Z,1.95
2019-02-12T07:49:27.822Z,2.05
2019-02-12T07:52:35.431Z,2.17
2019-02-12T07:56:10.159Z,1.80
2019-02-12T07:59:23.282Z,2.05
2019-02-12T08:02:41.143Z,2.15
2019-02-12T08:05:27.329Z,1.75
2019-02-12T08:08:52.903Z,2.30
2019-02-12T08:11:39.453Z,2.00
2019-02-12T08:14:47.055Z,1.82
2019-02-12T08:18:02.439Z,1.60
2019-02-12T08:21:22.930Z,1.90
2019-02-12T08:24:38.218Z,1.80
2019-02-12T08:27:18.664Z,1.92
2019-02-12T08:30:34.985Z,1.55
2019-02-12T08:33:57.865Z,1.90
2019-02-12T08:37:07.488Z,1.70
2019-02-12T08:40:00.436Z,1.80
2019-02-12T08:43:01.080Z,1.80
2019-02-12T08:46:03.359Z,1.70
2019-02-12T08:49:16.280Z,2.20
2019-02-12T08:52:22.025Z,2.05
2019-02-12T08:55:15.614Z,2.60
2019-02-12T08:58:44.255Z,2.90
2019-02-12T09:02:01.015Z,3.85
2019-02-12T09:04:54.787Z,6.85
2019-02-12T09:07:56.036Z,10.68
2019-02-12T09:11:19.204Z,13.62
2019-02-12T09:14:00.912Z,11.15
2019-02-12T09:17:17.122Z,11.78
2019-02-12T09:20:21.115Z,12.20
2019-02-12T09:23:22.321Z,11.83
2019-02-12T09:26:13.467Z,11.57
2019-02-12T09:29:48.524Z,11.50
2019-02-12T09:32:58.908Z,7.03
2019-02-12T09:36:15.670Z,6.58
2019-02-12T09:39:26.386Z,7.10
2019-02-12T09:42:41.462Z,6.10
2019-02-12T09:45:40.448Z,6.05
2019-02-12T09:48:52.384Z,5.62
2019-02-12T09:51:48.944Z,6.70
2019-02-12T09:54:54.125Z,9.00
2019-02-12T09:57:46.026Z,11.57
2019-02-12T10:00:59.903Z,10.98
2019-02-12T10:04:20.160Z,13.90
2019-02-12T10:07:14.095Z,11.68
2019-02-12T10:10:25.105Z,12.50
2019-02-12T10:13:15.701Z,11.43
2019-02-12T10:16:31.306Z,11.25
2019-02-12T10:19:19.900Z,11.00
2019-02-12T10:22:28.078Z,10.03
2019-02-12T10:25:17.012Z,9.83
2019-02-12T10:28:25.858Z,8.25
2019-02-12T10:31:34.960Z,10.10
2019-02-12T10:34:04.777Z,9.50
2019-02-12T10:36:34.609Z,9.85
2019-02-12T10:39:05.221Z,9.03
2019-02-12T10:41:34.913Z,10.53
2019-02-12T10:44:04.612Z,8.95
2019-02-12T10:46:34.523Z,9.68
2019-02-12T10:49:04.447Z,10.60
2019-02-12T10:51:34.185Z,10.03
2019-02-12T10:54:03.975Z,9.80
2019-02-12T10:56:33.587Z,9.98
2019-02-12T10:59:03.344Z,9.40
2019-02-12T11:01:32.995Z,10.72
2019-02-12T11:04:02.822Z,10.30
2019-02-12T11:06:32.518Z,9.88
2019-02-12T11:09:02.245Z,9.75
2019-02-12T11:11:31.948Z,9.68
2019-02-12T11:14:01.562Z,8.88
2019-02-12T11:16:31.421Z,8.05
2019-02-12T11:19:01.007Z,7.72
2019-02-12T11:21:30.818Z,7.05
2019-02-12T11:24:00.455Z,6.30
2019-02-12T11:26:30.118Z,6.25
2019-02-12T11:28:59.875Z,5.90
2019-02-12T11:31:29.726Z,5.85
2019-02-12T11:33:59.478Z,5.28
2019-02-12T11:36:29.261Z,4.80
2019-02-12T11:38:58.891Z,4.95
2019-02-12T11:41:28.577Z,5.33
2019-02-12T11:43:58.186Z,5.58
2019-02-12T11:46:27.965Z,5.17
2019-02-12T11:48:57.600Z,4.92
2019-02-12T11:51:27.242Z,5.62
2019-02-12T11:53:56.922Z,5.15
2019-02-12T11:56:26.630Z,4.72
2019-02-12T11:58:56.304Z,4.95
2019-02-12T12:01:28.921Z,4.50
2019-02-12T12:03:58.565Z,4.95
2019-02-12T12:06:28.255Z,4.80
2019-02-12T12:08:57.998Z,4.60
2019-02-12T12:11:27.593Z,4.45
2019-02-12T12:13:57.295Z,4.65
2019-02-12T12:16:26.927Z,4.60
2019-02-12T12:18:56.662Z,4.67
2019-02-12T12:21:26.447Z,4.60
2019-02-12T12:23:56.171Z,4.25
2019-02-12T12:26:25.732Z,4.00
2019-02-12T12:28:55.543Z,3.80
2019-02-12T12:31:25.273Z,4.25
2019-02-12T12:33:54.991Z,4.05
2019-02-12T12:36:24.676Z,4.03
2019-02-12T12:38:54.311Z,3.67
2019-02-12T12:41:24.028Z,3.87
2019-02-12T12:43:53.723Z,3.70
2019-02-12T12:46:23.417Z,3.77
2019-02-12T12:48:53.159Z,3.40
2019-02-12T12:51:22.840Z,3.37
2019-02-12T12:53:52.558Z,3.98
2019-02-12T12:56:22.297Z,3.22
2019-02-12T12:58:52.069Z,3.40
2019-02-12T13:01:21.882Z,3.30
2019-02-12T13:03:51.611Z,3.40
2019-02-12T13:06:21.242Z,3.50
2019-02-12T13:08:50.927Z,2.85
2019-02-12T13:11:20.656Z,3.17
2019-02-12T13:13:50.554Z,3.20
2019-02-12T13:16:20.224Z,2.90
2019-02-12T13:18:50.086Z,3.08
2019-02-12T13:21:19.706Z,2.77
2019-02-12T13:23:49.439Z,2.65
2019-02-12T13:26:19.246Z,2.90
2019-02-12T13:28:48.972Z,3.00
2019-02-12T13:31:19.099Z,2.52
2019-02-12T13:33:48.838Z,2.80
2019-02-12T13:36:18.492Z,2.92
2019-02-12T13:38:48.274Z,2.58
2019-02-12T13:41:18.017Z,2.72
2019-02-12T13:43:47.687Z,2.60
2019-02-12T13:46:17.440Z,2.37
2019-02-12T13:48:47.208Z,2.30
2019-02-12T13:51:16.981Z,2.30
2019-02-12T13:53:46.652Z,2.42
2019-02-12T13:56:16.480Z,2.27
2019-02-12T13:58:46.120Z,2.60
2019-02-12T14:01:15.935Z,2.50
2019-02-12T14:03:45.847Z,2.30
2019-02-12T14:06:15.525Z,2.27
2019-02-12T14:08:45.301Z,2.33
2019-02-12T14:11:15.082Z,2.22
2019-02-12T14:13:44.946Z,2.40
2019-02-12T14:16:14.681Z,2.20
2019-02-12T14:18:44.349Z,2.40
2019-02-12T14:21:14.161Z,2.45
2019-02-12T14:23:43.871Z,2.50
2019-02-12T14:26:13.595Z,2.00
2019-02-12T14:28:43.397Z,1.77
2019-02-12T14:31:13.219Z,2.10
2019-02-12T14:33:42.868Z,2.10
2019-02-12T14:36:12.647Z,2.35
2019-02-12T14:38:42.286Z,2.05
2019-02-12T14:41:11.964Z,2.20
2019-02-12T14:43:41.703Z,2.10
2019-02-12T14:46:11.410Z,2.27
2019-02-12T14:48:41.122Z,2.00
2019-02-12T14:51:10.822Z,2.10
2019-02-12T14:53:40.622Z,1.80
2019-02-12T14:56:11.563Z,2.08
2019-02-12T14:58:41.567Z,1.87
2019-02-12T15:01:11.221Z,2.22
2019-02-12T15:03:40.998Z,2.25
2019-02-12T15:06:10.724Z,1.92
2019-02-12T15:08:40.522Z,1.98
2019-02-12T15:11:10.221Z,2.10
2019-02-12T15:13:39.886Z,2.52
2019-02-12T15:16:09.544Z,2.30
2019-02-12T15:18:39.246Z,1.92
2019-02-12T15:21:08.867Z,1.95
2019-02-12T15:23:38.505Z,2.15
2019-02-12T15:26:08.382Z,1.90
2019-02-12T15:28:38.031Z,2.27
2019-02-12T15:31:07.870Z,2.08
2019-02-12T15:33:37.589Z,1.87
2019-02-12T15:36:07.340Z,1.80
2019-02-12T15:38:37.056Z,2.00
2019-02-12T15:41:06.758Z,2.10
2019-02-12T15:43:36.515Z,3.20
2019-02-12T15:46:06.186Z,5.17
2019-02-12T15:48:35.907Z,7.15
2019-02-12T15:51:05.762Z,8.70
2019-02-12T15:53:35.798Z,10.88
2019-02-12T15:56:05.611Z,12.53
2019-02-12T15:58:35.510Z,14.85
2019-02-12T16:01:06.070Z,16.90
2019-02-12T16:03:37.722Z,19.75
2019-02-12T16:06:07.392Z,21.85
2019-02-12T16:08:37.185Z,23.62
2019-02-12T16:11:06.808Z,28.02
2019-02-12T16:13:36.743Z,28.73
2019-02-12T16:16:07.807Z,30.95
2019-02-12T16:18:38.109Z,33.70
2019-02-12T16:21:08.182Z,37.38
2019-02-12T16:23:37.982Z,39.27
2019-02-12T16:26:07.810Z,40.25
2019-02-12T16:28:37.552Z,44.35
2019-02-12T16:31:07.333Z,44.98
2019-02-12T16:33:37.196Z,45.35
2019-02-12T16:36:07.055Z,43.05
2019-02-12T16:38:36.779Z,44.33
2019-02-12T16:41:06.486Z,41.35
2019-02-12T16:43:36.275Z,40.63
2019-02-12T16:46:10.102Z,40.63
2019-02-12T16:48:39.847Z,40.75
2019-02-12T16:51:09.628Z,39.33
2019-02-12T16:53:39.838Z,39.23
2019-02-12T16:56:09.492Z,37.28
2019-02-12T16:58:39.256Z,37.70
2019-02-12T17:01:09.016Z,36.25
2019-02-12T17:03:38.696Z,27.62
2019-02-12T17:06:09.444Z,32.20
2019-02-12T17:08:39.278Z,32.88
2019-02-12T17:11:09.120Z,31.57
2019-02-12T17:13:38.878Z,31.15
2019-02-12T17:16:09.100Z,30.00
2019-02-12T17:18:38.829Z,31.17
2019-02-12T17:21:08.666Z,29.42
2019-02-12T17:23:38.468Z,29.82
2019-02-12T17:26:16.130Z,28.27
2019-02-12T17:28:39.705Z,28.92
2019-02-12T17:31:09.506Z,28.38
2019-02-12T17:33:39.326Z,26.45
2019-02-12T17:36:09.088Z,27.40
2019-02-12T17:38:38.882Z,25.62
2019-02-12T17:41:08.764Z,25.43
2019-02-12T17:43:40.618Z,25.97
2019-02-12T17:46:10.532Z,26.60
2019-02-12T17:48:40.453Z,89.50
2019-02-12T17:51:10.629Z,102.00
2019-02-12T17:53:40.438Z,33.33
2019-02-12T17:56:10.651Z,112.05
2019-02-12T17:58:41.914Z,109.90
2019-02-12T18:01:11.917Z,111.25
2019-02-12T18:03:41.708Z,117.08
2019-02-12T18:06:11.678Z,86.85
2019-02-12T18:08:41.516Z,62.30
2019-02-12T18:11:11.364Z,68.75
2019-02-12T18:13:41.170Z,118.33
2019-02-12T18:16:10.692Z,125.35
2019-02-12T18:18:41.688Z,128.38
2019-02-12T18:21:11.539Z,126.97
2019-02-12T18:23:41.361Z,123.42
2019-02-12T18:26:11.240Z,125.18
2019-02-12T18:28:40.996Z,118.97
2019-02-12T18:31:10.866Z,121.10
2019-02-12T18:33:41.082Z,118.82
2019-02-12T18:36:10.862Z,118.40
2019-02-12T18:38:40.674Z,117.10
2019-02-12T18:41:11.191Z,117.77
2019-02-12T18:43:42.000Z,120.92
2019-02-12T18:46:12.202Z,117.97
2019-02-12T18:48:42.079Z,117.35
2019-02-12T18:51:12.090Z,114.42
2019-02-12T18:53:41.976Z,116.70
2019-02-12T18:56:12.193Z,123.58
2019-02-12T18:58:42.103Z,120.35
2019-02-12T19:01:11.846Z,115.72
2019-02-12T19:03:41.722Z,118.05
2019-02-12T19:06:11.534Z,116.37
2019-02-12T19:08:41.428Z,116.65
2019-02-12T19:11:11.608Z,114.42
2019-02-12T19:13:41.594Z,116.30
2019-02-12T19:16:11.385Z,116.65
2019-02-12T19:18:41.309Z,109.90
2019-02-12T19:21:12.612Z,115.57
2019-02-12T19:23:42.931Z,113.25
2019-02-12T19:26:12.803Z,112.05
2019-02-12T19:28:45.078Z,108.25
2019-02-12T19:31:14.966Z,112.90
2019-02-12T19:33:46.914Z,116.85
2019-02-12T19:36:16.858Z,112.90
2019-02-12T19:38:47.691Z,116.05
2019-02-12T19:41:17.258Z,112.20
2019-02-12T19:43:47.564Z,106.83
2019-02-12T19:46:17.493Z,108.60
2019-02-12T19:48:47.404Z,113.55
2019-02-12T19:51:19.131Z,115.08
2019-02-12T19:53:48.866Z,107.83
2019-02-12T19:56:18.611Z,110.00
2019-02-12T19:58:48.712Z,113.20
2019-02-12T20:01:18.628Z,111.55
2019-02-12T20:03:48.495Z,110.85
2019-02-12T20:06:18.375Z,106.58
2019-02-12T20:08:48.392Z,109.52
2019-02-12T20:11:20.499Z,109.22
2019-02-12T20:13:50.361Z,107.72
2019-02-12T20:16:20.325Z,106.35
2019-02-12T20:18:50.260Z,110.30
2019-02-12T20:21:20.049Z,99.52
2019-02-12T20:23:50.334Z,98.75
2019-02-12T20:26:20.125Z,96.97
2019-02-12T20:28:52.549Z,95.75
2019-02-12T20:31:24.086Z,95.55
2019-02-12T20:33:57.151Z,97.60
2019-02-12T20:36:25.867Z,93.52
2019-02-12T20:38:56.223Z,92.02
2019-02-12T20:41:26.042Z,88.72
2019-02-12T20:43:56.981Z,89.40
2019-02-12T20:46:29.367Z,89.58
2019-02-12T20:48:59.264Z,86.55
2019-02-12T20:51:29.274Z,87.75
2019-02-12T20:53:59.444Z,87.05
2019-02-12T20:56:29.338Z,89.47
2019-02-12T20:58:59.086Z,87.90
2019-02-12T21:01:28.951Z,85.15
2019-02-12T21:03:58.701Z,81.10
2019-02-12T21:06:28.578Z,81.53
2019-02-12T21:09:00.839Z,82.42
2019-02-12T21:11:33.050Z,81.40
2019-02-12T21:14:03.032Z,82.50
2019-02-12T21:16:32.972Z,81.92
2019-02-12T21:19:03.812Z,78.62
2019-02-12T21:21:33.704Z,80.00
2019-02-12T21:24:03.329Z,76.65
2019-02-12T21:26:33.227Z,77.62
2019-02-12T21:29:02.908Z,78.87
2019-02-12T21:31:32.636Z,78.10
2019-02-12T21:34:02.297Z,79.53
2019-02-12T21:36:31.966Z,76.05
2019-02-12T21:39:01.607Z,76.28
2019-02-12T21:41:31.289Z,74.65
2019-02-12T21:44:01.184Z,74.58
2019-02-12T21:46:30.900Z,72.27
2019-02-12T21:49:00.619Z,71.90
2019-02-12T21:51:30.331Z,71.47
2019-02-12T21:54:00.155Z,71.40
2019-02-12T21:56:29.913Z,70.65
2019-02-12T21:58:59.777Z,71.28
2019-02-12T22:01:29.482Z,71.47
2019-02-12T22:03:59.351Z,70.75
2019-02-12T22:06:29.114Z,69.72
2019-02-12T22:08:58.836Z,69.17
2019-02-12T22:11:28.453Z,68.28
2019-02-12T22:13:58.157Z,63.70
2019-02-12T22:16:27.758Z,67.32
2019-02-12T22:18:57.507Z,66.72
2019-02-12T22:21:27.225Z,66.95
2019-02-12T22:23:57.090Z,65.90
2019-02-12T22:26:26.751Z,64.25
2019-02-12T22:28:56.419Z,62.45
2019-02-12T22:31:26.332Z,62.08
2019-02-12T22:33:56.140Z,62.15
2019-02-12T22:36:25.751Z,62.33
2019-02-12T22:38:55.472Z,61.05
2019-02-12T22:41:25.167Z,58.52
2019-02-12T22:43:54.793Z,59.10
2019-02-12T22:46:24.621Z,56.77
2019-02-12T22:48:54.443Z,58.75
2019-02-12T22:51:24.109Z,57.73
2019-02-12T22:53:53.800Z,55.88
2019-02-12T22:56:23.536Z,54.38
2019-02-12T22:58:53.268Z,52.55
2019-02-12T23:01:34.971Z,55.45
2019-02-12T23:04:04.750Z,53.92
2019-02-12T23:06:34.496Z,53.52
2019-02-12T23:09:06.376Z,52.93
2019-02-12T23:11:36.278Z,51.83
2019-02-12T23:14:05.982Z,51.75
2019-02-12T23:16:35.762Z,52.25
2019-02-12T23:19:05.506Z,49.03
2019-02-12T23:21:35.322Z,51.65
2019-02-12T23:24:04.924Z,51.33
2019-02-12T23:26:34.607Z,50.63
2019-02-12T23:29:04.246Z,49.08
2019-02-12T23:31:33.942Z,50.45
2019-02-12T23:34:03.637Z,50.23
2019-02-12T23:36:33.348Z,49.35
2019-02-12T23:39:04.084Z,48.38
2019-02-12T23:41:33.797Z,46.85
2019-02-12T23:44:03.526Z,49.18
2019-02-12T23:46:33.234Z,47.30
2019-02-12T23:49:02.848Z,46.68
2019-02-12T23:51:32.637Z,46.70
2019-02-12T23:54:02.376Z,47.55
2019-02-12T23:56:32.154Z,44.77
2019-02-12T23:59:01.908Z,44.95
